createdAt,value
2022-09-27T00:00:00.456Z,96.70
2022-09-27T00:00:35.085Z,96.70
2022-09-27T00:01:10.199Z,96.70
2022-09-27T00:01:44.853Z,96.70
2022-09-27T00:02:20.764Z,96.70
2022-09-27T00:02:53.611Z,96.70
2022-09-27T00:03:26.679Z,96.70
2022-09-27T00:04:01.289Z,96.70
2022-09-27T00:04:35.504Z,96.70
2022-09-27T00:05:10.373Z,96.70
2022-09-27T00:05:45.233Z,96.80
2022-09-27T00:06:20.747Z,96.80
2022-09-27T00:06:54.885Z,96.80
2022-09-27T00:07:29.897Z,96.80
2022-09-27T00:08:02.983Z,96.80
2022-09-27T00:08:39.322Z,96.90
2022-09-27T00:09:13.074Z,96.90
2022-09-27T00:09:47.569Z,96.90
2022-09-27T00:10:20.854Z,96.90
2022-09-27T00:10:59.497Z,96.90
2022-09-27T00:11:34.303Z,96.90
2022-09-27T00:12:09.575Z,96.90
2022-09-27T00:12:43.075Z,96.90
2022-09-27T00:13:15.305Z,96.90
2022-09-27T00:13:49.731Z,96.90
2022-09-27T00:14:23.321Z,96.90
2022-09-27T00:14:57.747Z,96.90
2022-09-27T00:15:32.521Z,97.00
2022-09-27T00:16:07.090Z,97.00
2022-09-27T00:16:41.190Z,97.10
2022-09-27T00:17:15.141Z,97.10
2022-09-27T00:17:52.473Z,97.10
2022-09-27T00:18:25.530Z,97.10
2022-09-27T00:19:00.918Z,97.10
2022-09-27T00:19:33.734Z,97.20
2022-09-27T00:20:07.018Z,97.20
2022-09-27T00:20:40.108Z,97.10
2022-09-27T00:21:15.529Z,97.10
2022-09-27T00:21:50.829Z,97.20
2022-09-27T00:22:24.789Z,97.20
2022-09-27T00:23:01.889Z,97.20
2022-09-27T00:23:36.100Z,97.10
2022-09-27T00:24:12.239Z,97.20
2022-09-27T00:24:46.526Z,97.20
2022-09-27T00:25:19.595Z,97.20
2022-09-27T00:25:56.767Z,97.20
2022-09-27T00:26:31.157Z,97.20
2022-09-27T00:27:05.585Z,97.20
2022-09-27T00:27:38.954Z,97.20
2022-09-27T00:28:14.680Z,97.20
2022-09-27T00:28:47.855Z,97.20
2022-09-27T00:29:21.806Z,97.20
2022-09-27T00:29:55.865Z,97.20
2022-09-27T00:30:29.955Z,97.20
2022-09-27T00:31:04.480Z,97.20
2022-09-27T00:31:39.284Z,97.10
2022-09-27T00:32:12.706Z,97.10
2022-09-27T00:32:46.388Z,97.00
2022-09-27T00:33:21.355Z,97.00
2022-09-27T00:33:54.638Z,96.90
2022-09-27T00:34:28.223Z,96.90
2022-09-27T00:35:02.630Z,96.80
2022-09-27T00:35:35.670Z,96.80
2022-09-27T00:36:09.352Z,96.80
2022-09-27T00:36:44.160Z,96.80
2022-09-27T00:37:20.067Z,96.80
2022-09-27T00:37:54.049Z,96.80
2022-09-27T00:38:30.367Z,96.80
2022-09-27T00:39:04.143Z,96.80
2022-09-27T00:39:38.885Z,96.80
2022-09-27T00:40:17.371Z,96.80
2022-09-27T00:40:52.948Z,96.90
2022-09-27T00:41:27.805Z,96.90
2022-09-27T00:42:02.450Z,96.90
2022-09-27T00:42:35.506Z,96.90
2022-09-27T00:43:15.739Z,96.90
2022-09-27T00:43:51.322Z,96.90
2022-09-27T00:44:42.967Z,96.90
2022-09-27T00:45:18.037Z,96.90
2022-09-27T00:45:54.200Z,96.90
2022-09-27T00:46:29.077Z,96.90
2022-09-27T00:47:04.574Z,96.90
2022-09-27T00:47:41.789Z,97.00
2022-09-27T00:48:18.928Z,97.00
2022-09-27T00:48:59.966Z,97.00
2022-09-27T00:49:37.442Z,96.90
2022-09-27T00:50:16.060Z,96.90
2022-09-27T00:50:51.450Z,96.80
2022-09-27T00:51:24.845Z,96.70
2022-09-27T00:52:02.694Z,96.70
2022-09-27T00:52:39.906Z,96.70
2022-09-27T00:53:16.552Z,96.70
2022-09-27T00:53:53.656Z,96.60
2022-09-27T00:54:27.612Z,96.60
2022-09-27T00:55:04.429Z,96.60
2022-09-27T00:55:40.325Z,96.60
2022-09-27T00:56:15.492Z,96.60
2022-09-27T00:56:49.279Z,96.60
2022-09-27T00:57:23.242Z,96.60
2022-09-27T00:57:57.783Z,96.60
2022-09-27T00:58:35.421Z,96.60
2022-09-27T00:59:09.815Z,96.60
2022-09-27T00:59:44.882Z,96.60
2022-09-27T01:00:19.344Z,96.60
2022-09-27T01:00:58.413Z,96.60
2022-09-27T01:01:32.497Z,96.50
2022-09-27T01:02:06.153Z,96.50
2022-09-27T01:02:41.723Z,96.50
2022-09-27T01:03:18.514Z,96.40
2022-09-27T01:03:54.759Z,96.40
2022-09-27T01:04:32.299Z,96.40
2022-09-27T01:05:07.231Z,96.40
2022-09-27T01:05:41.269Z,96.50
2022-09-27T01:06:15.668Z,96.40
2022-09-27T01:06:49.282Z,96.40
2022-09-27T01:07:22.513Z,96.40
2022-09-27T01:08:01.303Z,96.40
2022-09-27T01:08:36.110Z,96.40
2022-09-27T01:09:11.661Z,96.40
2022-09-27T01:09:46.970Z,96.40
2022-09-27T01:10:20.704Z,96.40
2022-09-27T01:11:00.781Z,96.40
2022-09-27T01:11:41.255Z,96.40
2022-09-27T01:12:18.338Z,96.40
2022-09-27T01:12:58.585Z,96.40
2022-09-27T01:13:37.584Z,96.30
2022-09-27T01:14:26.024Z,96.30
2022-09-27T01:15:06.197Z,96.30
2022-09-27T01:15:42.341Z,96.20
2022-09-27T01:16:19.204Z,96.20
2022-09-27T01:16:59.689Z,96.20
2022-09-27T01:17:38.181Z,96.20
2022-09-27T01:18:17.951Z,96.20
2022-09-27T01:18:59.756Z,96.30
2022-09-27T01:19:47.894Z,96.30
2022-09-27T01:20:27.435Z,96.40
2022-09-27T01:21:22.193Z,96.40
2022-09-27T01:22:00.333Z,96.30
2022-09-27T01:22:38.313Z,96.30
2022-09-27T01:23:34.782Z,96.20
2022-09-27T01:24:23.205Z,96.20
2022-09-27T01:25:03.539Z,96.10
2022-09-27T01:25:48.053Z,96.10
2022-09-27T01:26:26.450Z,96.10
2022-09-27T01:27:13.220Z,96.10
2022-09-27T01:28:03.951Z,96.10
2022-09-27T01:28:44.221Z,96.20
2022-09-27T01:29:22.970Z,96.30
2022-09-27T01:30:11.640Z,96.40
2022-09-27T01:30:51.219Z,96.40
2022-09-27T01:31:27.464Z,96.50
2022-09-27T01:32:03.920Z,96.70
2022-09-27T01:32:40.692Z,96.50
2022-09-27T01:33:25.711Z,96.50
2022-09-27T01:34:04.445Z,96.50
2022-09-27T01:34:42.182Z,96.50
2022-09-27T01:35:21.757Z,96.50
2022-09-27T01:36:06.643Z,96.50
2022-09-27T01:36:44.295Z,96.60
2022-09-27T01:37:23.305Z,96.60
2022-09-27T01:38:02.437Z,96.60
2022-09-27T01:38:46.240Z,96.70
2022-09-27T01:39:25.891Z,96.70
2022-09-27T01:40:24.905Z,96.60
2022-09-27T01:41:31.013Z,96.60
2022-09-27T01:42:27.228Z,96.50
2022-09-27T01:43:07.356Z,96.50
2022-09-27T01:43:48.568Z,96.50
2022-09-27T01:44:30.555Z,96.40
2022-09-27T01:45:15.772Z,96.50
2022-09-27T01:46:00.925Z,96.40
2022-09-27T01:47:02.663Z,96.40
2022-09-27T01:47:52.404Z,96.40
2022-09-27T01:49:07.181Z,96.40
2022-09-27T01:49:44.441Z,96.50
2022-09-27T01:50:21.045Z,96.50
2022-09-27T01:50:57.646Z,96.60
2022-09-27T01:51:33.946Z,96.50
2022-09-27T01:52:09.903Z,96.60
2022-09-27T01:52:47.467Z,96.60
2022-09-27T01:53:24.201Z,96.60
2022-09-27T01:54:16.268Z,96.60
2022-09-27T01:55:13.813Z,96.60
2022-09-27T01:57:04.945Z,96.50
2022-09-27T01:57:47.199Z,96.70
2022-09-27T01:58:30.027Z,96.70
2022-09-27T01:59:08.002Z,96.80
2022-09-27T01:59:47.616Z,96.80
2022-09-27T02:00:44.094Z,96.80
2022-09-27T02:01:20.322Z,96.80
2022-09-27T02:01:55.875Z,96.80
2022-09-27T02:02:37.300Z,96.90
2022-09-27T02:03:31.811Z,96.90
2022-09-27T02:04:27.275Z,96.90
2022-09-27T02:05:07.962Z,96.90
2022-09-27T02:05:43.800Z,96.80
2022-09-27T02:06:40.710Z,96.90
2022-09-27T02:07:28.417Z,96.80
2022-09-27T02:08:02.968Z,96.70
2022-09-27T02:08:40.757Z,96.70
2022-09-27T02:09:25.264Z,96.60
2022-09-27T02:10:23.504Z,96.60
2022-09-27T02:11:01.137Z,96.60
2022-09-27T02:11:39.684Z,96.60
2022-09-27T02:12:23.764Z,96.60
2022-09-27T02:13:03.661Z,96.60
2022-09-27T02:13:39.655Z,96.60
2022-09-27T02:14:36.131Z,96.60
2022-09-27T02:15:10.811Z,96.60
2022-09-27T02:15:49.301Z,96.60
2022-09-27T02:16:40.007Z,96.60
2022-09-27T02:17:21.736Z,96.60
2022-09-27T02:17:57.952Z,96.70
2022-09-27T02:18:35.732Z,96.60
2022-09-27T02:19:11.269Z,96.60
2022-09-27T02:19:50.967Z,96.50
2022-09-27T02:20:33.335Z,96.60
2022-09-27T02:21:08.395Z,96.60
2022-09-27T02:21:43.733Z,96.60
2022-09-27T02:22:19.192Z,96.70
2022-09-27T02:22:55.634Z,96.70
2022-09-27T02:23:36.098Z,96.60
2022-09-27T02:24:18.430Z,96.60
2022-09-27T02:24:57.821Z,96.50
2022-09-27T02:25:44.700Z,96.50
2022-09-27T02:26:23.856Z,96.50
2022-09-27T02:27:01.498Z,96.50
2022-09-27T02:27:37.207Z,96.50
2022-09-27T02:28:23.595Z,96.50
2022-09-27T02:28:59.199Z,96.50
2022-09-27T02:29:41.261Z,96.50
2022-09-27T02:30:16.852Z,96.60
2022-09-27T02:30:53.682Z,96.60
2022-09-27T02:31:35.219Z,96.60
2022-09-27T02:32:09.792Z,96.70
2022-09-27T02:32:42.832Z,96.70
2022-09-27T02:33:17.177Z,96.80
2022-09-27T02:33:53.821Z,96.80
2022-09-27T02:34:28.334Z,96.90
2022-09-27T02:35:03.235Z,96.90
2022-09-27T02:35:37.290Z,96.90
2022-09-27T02:36:11.657Z,96.90
2022-09-27T02:36:44.939Z,97.00
2022-09-27T02:37:19.826Z,97.00
2022-09-27T02:37:54.413Z,97.30
2022-09-27T02:38:27.697Z,97.10
2022-09-27T02:39:01.543Z,97.20
2022-09-27T02:39:37.147Z,97.30
2022-09-27T02:40:14.424Z,97.30
2022-09-27T02:40:49.557Z,97.20
2022-09-27T02:41:23.332Z,97.10
2022-09-27T02:41:59.075Z,97.10
2022-09-27T02:42:35.166Z,97.00
2022-09-27T02:43:09.160Z,97.00
2022-09-27T02:43:42.893Z,97.00
2022-09-27T02:44:18.231Z,96.90
2022-09-27T02:44:51.471Z,96.90
2022-09-27T02:45:24.489Z,96.80
2022-09-27T02:46:05.554Z,96.80
2022-09-27T02:46:50.381Z,96.70
2022-09-27T02:47:30.721Z,96.70
2022-09-27T02:48:08.845Z,96.60
2022-09-27T02:48:45.563Z,96.60
2022-09-27T02:49:26.231Z,96.50
2022-09-27T02:50:33.609Z,96.50
2022-09-27T02:51:29.924Z,96.50
2022-09-27T02:52:12.556Z,96.50
2022-09-27T02:52:51.211Z,96.50
2022-09-27T02:53:31.217Z,96.50
2022-09-27T02:54:16.517Z,96.50
2022-09-27T02:55:13.021Z,96.50
2022-09-27T02:56:20.585Z,96.50
2022-09-27T02:57:34.628Z,96.50
2022-09-27T02:58:47.459Z,96.50
2022-09-27T02:59:46.714Z,96.40
2022-09-27T03:00:36.160Z,96.40
2022-09-27T03:01:32.428Z,96.30
2022-09-27T03:02:18.916Z,96.30
2022-09-27T03:03:14.231Z,96.30
2022-09-27T03:04:08.385Z,96.30
2022-09-27T03:04:45.884Z,96.30
2022-09-27T03:05:21.133Z,96.30
2022-09-27T03:05:58.046Z,96.30
2022-09-27T03:06:32.597Z,96.40
2022-09-27T03:07:07.273Z,96.40
2022-09-27T03:07:41.565Z,96.40
2022-09-27T03:08:15.273Z,96.50
2022-09-27T03:08:48.548Z,96.50
2022-09-27T03:09:25.749Z,96.50
2022-09-27T03:09:59.675Z,96.50
2022-09-27T03:10:33.817Z,96.50
2022-09-27T03:11:07.515Z,96.60
2022-09-27T03:11:41.934Z,96.50
2022-09-27T03:12:15.438Z,96.50
2022-09-27T03:12:51.276Z,96.50
2022-09-27T03:13:24.667Z,96.50
2022-09-27T03:14:08.699Z,96.50
2022-09-27T03:14:50.405Z,96.40
2022-09-27T03:15:43.900Z,96.30
2022-09-27T03:16:37.896Z,96.30
2022-09-27T03:17:27.555Z,96.30
2022-09-27T03:18:21.064Z,96.20
2022-09-27T03:19:03.378Z,96.30
2022-09-27T03:20:10.266Z,96.30
2022-09-27T03:21:06.371Z,96.40
2022-09-27T03:21:41.949Z,96.40
2022-09-27T03:22:23.027Z,96.40
2022-09-27T03:22:56.627Z,96.40
2022-09-27T03:23:31.477Z,96.50
2022-09-27T03:24:06.031Z,96.50
2022-09-27T03:24:39.953Z,96.50
2022-09-27T03:25:14.226Z,96.50
2022-09-27T03:25:47.553Z,96.50
2022-09-27T03:26:21.359Z,96.50
2022-09-27T03:26:56.520Z,96.50
2022-09-27T03:27:32.332Z,96.50
2022-09-27T03:28:05.499Z,96.50
2022-09-27T03:28:40.733Z,96.50
2022-09-27T03:29:14.941Z,96.60
2022-09-27T03:29:55.970Z,96.60
2022-09-27T03:30:31.097Z,96.60
2022-09-27T03:31:05.049Z,96.60
2022-09-27T03:31:52.692Z,96.60
2022-09-27T03:32:53.284Z,96.60
2022-09-27T03:33:48.483Z,96.40
2022-09-27T03:34:22.832Z,96.70
2022-09-27T03:34:56.515Z,96.70
2022-09-27T03:35:30.453Z,96.70
2022-09-27T03:36:04.882Z,96.70
2022-09-27T03:36:38.730Z,96.80
2022-09-27T03:37:12.458Z,96.80
2022-09-27T03:37:45.570Z,96.70
2022-09-27T03:38:19.960Z,96.70
2022-09-27T03:38:53.781Z,96.70
2022-09-27T03:39:27.385Z,96.60
2022-09-27T03:40:00.693Z,96.60
2022-09-27T03:40:37.012Z,96.60
2022-09-27T03:41:12.440Z,96.50
2022-09-27T03:41:47.840Z,96.50
2022-09-27T03:42:22.554Z,96.50
2022-09-27T03:42:57.240Z,96.40
2022-09-27T03:43:30.018Z,96.40
2022-09-27T03:44:09.000Z,96.30
2022-09-27T03:44:42.617Z,96.30
2022-09-27T03:45:15.268Z,96.30
2022-09-27T03:45:50.482Z,96.30
2022-09-27T03:46:23.877Z,96.30
2022-09-27T03:46:58.042Z,96.30
2022-09-27T03:47:31.758Z,96.30
2022-09-27T03:48:06.248Z,96.30
2022-09-27T03:48:40.565Z,96.30
2022-09-27T03:49:14.606Z,96.30
2022-09-27T03:49:48.736Z,96.40
2022-09-27T03:50:21.773Z,96.40
2022-09-27T03:50:56.848Z,96.40
2022-09-27T03:51:30.671Z,96.40
2022-09-27T03:52:04.471Z,96.40
2022-09-27T03:52:39.139Z,96.40
2022-09-27T03:53:13.253Z,96.30
2022-09-27T03:53:47.043Z,96.30
2022-09-27T03:54:21.492Z,96.20
2022-09-27T03:54:59.715Z,96.20
2022-09-27T03:55:36.198Z,96.30
2022-09-27T03:56:11.320Z,96.30
2022-09-27T03:56:45.824Z,96.50
2022-09-27T03:57:19.658Z,96.30
2022-09-27T03:57:54.592Z,96.30
2022-09-27T03:58:27.780Z,96.30
2022-09-27T03:59:01.481Z,96.40
2022-09-27T03:59:42.312Z,96.40
2022-09-27T04:00:42.088Z,96.40
2022-09-27T04:01:16.797Z,96.50
2022-09-27T04:01:52.775Z,96.50
2022-09-27T04:02:46.520Z,96.40
2022-09-27T04:03:42.318Z,96.50
2022-09-27T04:04:33.923Z,96.50
2022-09-27T04:05:08.949Z,96.60
2022-09-27T04:05:43.115Z,96.50
2022-09-27T04:06:21.780Z,96.50
2022-09-27T04:06:54.835Z,96.50
2022-09-27T04:07:31.888Z,96.50
2022-09-27T04:08:06.941Z,96.50
2022-09-27T04:08:41.039Z,96.50
2022-09-27T04:09:18.148Z,96.50
2022-09-27T04:10:03.363Z,96.50
2022-09-27T04:10:39.730Z,96.60
2022-09-27T04:11:14.701Z,96.60
2022-09-27T04:11:51.797Z,96.60
2022-09-27T04:12:26.481Z,96.70
2022-09-27T04:12:59.966Z,96.70
2022-09-27T04:13:38.056Z,96.70
2022-09-27T04:14:13.772Z,96.70
2022-09-27T04:15:09.271Z,96.60
2022-09-27T04:15:56.126Z,96.60
2022-09-27T04:16:48.308Z,96.60
2022-09-27T04:17:38.687Z,96.60
2022-09-27T04:18:38.088Z,96.70
2022-09-27T04:19:27.487Z,96.70
2022-09-27T04:20:12.748Z,96.70
2022-09-27T04:20:50.337Z,96.60
2022-09-27T04:21:24.598Z,96.60
2022-09-27T04:21:59.307Z,96.70
2022-09-27T04:22:33.404Z,96.70
2022-09-27T04:23:08.419Z,96.70
2022-09-27T04:23:45.127Z,96.70
2022-09-27T04:24:20.604Z,96.60
2022-09-27T04:25:12.625Z,96.60
2022-09-27T04:25:47.994Z,96.70
2022-09-27T04:26:28.153Z,96.70
2022-09-27T04:27:27.961Z,96.70
2022-09-27T04:28:03.983Z,96.80
2022-09-27T04:28:37.810Z,96.80
2022-09-27T04:29:11.953Z,96.80
2022-09-27T04:29:53.092Z,96.90
2022-09-27T04:30:46.614Z,97.10
2022-09-27T04:31:40.301Z,96.90
2022-09-27T04:32:41.404Z,96.90
2022-09-27T04:33:34.225Z,96.80
2022-09-27T04:34:43.188Z,96.80
2022-09-27T04:35:40.163Z,96.80
2022-09-27T04:36:28.099Z,96.70
2022-09-27T04:37:26.133Z,96.70
2022-09-27T04:38:02.487Z,96.60
2022-09-27T04:38:37.369Z,96.50
2022-09-27T04:39:12.419Z,96.50
2022-09-27T04:39:49.760Z,96.50
2022-09-27T04:40:24.571Z,96.40
2022-09-27T04:40:57.729Z,96.40
2022-09-27T04:41:32.415Z,96.40
2022-09-27T04:42:07.259Z,96.40
2022-09-27T04:42:41.711Z,96.40
2022-09-27T04:43:16.108Z,96.40
2022-09-27T04:43:49.729Z,96.40
2022-09-27T04:44:23.382Z,96.50
2022-09-27T04:44:58.000Z,96.60
2022-09-27T04:45:31.801Z,96.70
2022-09-27T04:46:05.480Z,97.00
2022-09-27T04:46:39.462Z,96.80
2022-09-27T04:47:13.200Z,96.80
2022-09-27T04:47:50.519Z,96.90
2022-09-27T04:48:25.297Z,96.90
2022-09-27T04:48:58.195Z,97.00
2022-09-27T04:49:32.366Z,97.10
2022-09-27T04:50:08.977Z,97.10
2022-09-27T04:50:44.530Z,97.20
2022-09-27T04:51:19.176Z,97.20
2022-09-27T04:51:54.187Z,97.30
2022-09-27T04:52:29.323Z,97.40
2022-09-27T04:53:02.534Z,97.40
2022-09-27T04:53:36.757Z,97.50
2022-09-27T04:54:10.651Z,97.50
2022-09-27T04:54:53.165Z,97.60
2022-09-27T04:55:28.290Z,97.70
2022-09-27T04:56:07.425Z,97.70
2022-09-27T04:56:42.907Z,97.80
2022-09-27T04:57:16.232Z,97.80
2022-09-27T04:57:49.889Z,97.90
2022-09-27T04:58:24.811Z,97.90
2022-09-27T04:58:59.398Z,97.90
2022-09-27T04:59:33.047Z,97.90
2022-09-27T05:00:06.839Z,97.90
2022-09-27T05:00:41.161Z,97.90
2022-09-27T05:01:36.094Z,97.90
2022-09-27T05:02:24.754Z,97.90
2022-09-27T05:03:19.395Z,97.90
2022-09-27T05:04:01.263Z,97.90
2022-09-27T05:04:35.888Z,98.00
2022-09-27T05:05:12.109Z,98.00
2022-09-27T05:05:49.889Z,98.00
2022-09-27T05:06:25.449Z,98.10
2022-09-27T05:07:01.855Z,98.10
2022-09-27T05:07:43.120Z,98.10
2022-09-27T05:08:22.309Z,98.10
2022-09-27T05:09:20.220Z,98.10
2022-09-27T05:09:59.341Z,98.10
2022-09-27T05:10:37.006Z,98.10
2022-09-27T05:11:11.139Z,98.00
2022-09-27T05:11:45.971Z,98.00
2022-09-27T05:12:22.498Z,98.00
2022-09-27T05:13:15.113Z,97.90
2022-09-27T05:13:49.331Z,97.90
2022-09-27T05:15:10.164Z,98.10
2022-09-27T05:16:04.412Z,97.80
2022-09-27T05:16:59.878Z,97.70
2022-09-27T05:17:45.944Z,97.60
2022-09-27T05:18:38.416Z,97.40
2022-09-27T05:19:44.582Z,97.40
2022-09-27T05:20:22.029Z,97.30
2022-09-27T05:21:03.789Z,97.30
2022-09-27T05:21:47.017Z,97.30
2022-09-27T05:22:20.593Z,97.30
2022-09-27T05:22:54.788Z,97.30
2022-09-27T05:23:28.364Z,97.20
2022-09-27T05:24:01.761Z,97.20
2022-09-27T05:24:38.468Z,97.10
2022-09-27T05:25:12.353Z,97.00
2022-09-27T05:25:58.141Z,96.90
2022-09-27T05:26:32.267Z,96.90
2022-09-27T05:27:08.893Z,96.80
2022-09-27T05:27:44.036Z,96.80
2022-09-27T05:28:17.765Z,96.80
2022-09-27T05:28:52.820Z,96.80
2022-09-27T05:29:26.302Z,96.80
2022-09-27T05:30:17.915Z,96.80
2022-09-27T05:30:55.579Z,96.80
2022-09-27T05:31:30.233Z,96.70
2022-09-27T05:32:42.332Z,96.30
2022-09-27T05:33:34.966Z,96.40
2022-09-27T05:34:40.212Z,96.30
2022-09-27T05:35:13.182Z,96.10
2022-09-27T05:35:52.698Z,96.10
2022-09-27T05:36:29.462Z,95.90
2022-09-27T05:37:02.819Z,95.90
2022-09-27T05:37:41.798Z,95.90
2022-09-27T05:38:15.728Z,95.90
2022-09-27T05:38:54.871Z,96.00
2022-09-27T05:39:29.861Z,96.00
2022-09-27T05:40:16.969Z,96.10
2022-09-27T05:40:57.576Z,96.10
2022-09-27T05:41:34.305Z,96.00
2022-09-27T05:42:10.977Z,95.90
2022-09-27T05:42:45.170Z,95.90
2022-09-27T05:43:20.750Z,95.80
2022-09-27T05:43:56.984Z,95.70
2022-09-27T05:44:30.831Z,95.70
2022-09-27T05:45:07.853Z,95.70
2022-09-27T05:45:41.997Z,95.80
2022-09-27T05:46:16.036Z,95.80
2022-09-27T05:46:51.128Z,95.80
2022-09-27T05:47:24.468Z,95.80
2022-09-27T05:47:58.912Z,95.80
2022-09-27T05:48:34.476Z,95.80
2022-09-27T05:49:12.820Z,95.70
2022-09-27T05:49:46.905Z,95.50
2022-09-27T05:50:22.595Z,95.40
2022-09-27T05:50:56.072Z,95.30
2022-09-27T05:51:30.487Z,95.30
2022-09-27T05:52:05.085Z,95.30
2022-09-27T05:52:39.279Z,95.30
2022-09-27T05:53:14.113Z,95.40
2022-09-27T05:53:49.164Z,95.50
2022-09-27T05:54:30.631Z,95.40
2022-09-27T05:55:06.731Z,95.40
2022-09-27T05:55:41.747Z,95.30
2022-09-27T05:56:14.662Z,95.30
2022-09-27T05:57:09.803Z,95.30
2022-09-27T05:57:57.584Z,95.20
2022-09-27T05:58:37.500Z,95.10
2022-09-27T05:59:24.635Z,95.10
2022-09-27T06:00:23.613Z,95.20
2022-09-27T06:00:58.555Z,95.10
2022-09-27T06:02:08.162Z,95.00
2022-09-27T06:02:54.487Z,95.00
2022-09-27T06:04:05.516Z,94.80
2022-09-27T06:06:16.706Z,94.40
2022-09-27T06:06:59.538Z,94.50
2022-09-27T06:07:33.229Z,94.50
2022-09-27T06:08:11.281Z,94.50
2022-09-27T06:08:50.471Z,94.50
2022-09-27T06:09:25.395Z,94.50
2022-09-27T06:10:00.182Z,94.40
2022-09-27T06:10:33.579Z,94.30
2022-09-27T06:11:12.022Z,94.30
2022-09-27T06:11:46.021Z,94.30
2022-09-27T06:12:22.463Z,94.10
2022-09-27T06:13:01.425Z,93.90
2022-09-27T06:13:43.415Z,93.90
2022-09-27T06:14:19.723Z,93.90
2022-09-27T06:15:12.515Z,93.80
2022-09-27T06:15:51.677Z,93.80
2022-09-27T06:16:25.367Z,93.80
2022-09-27T06:17:00.572Z,93.80
2022-09-27T06:17:41.432Z,93.70
2022-09-27T06:18:24.091Z,93.60
2022-09-27T06:18:58.410Z,93.30
2022-09-27T06:19:31.658Z,93.40
2022-09-27T06:20:06.757Z,93.30
2022-09-27T06:20:43.656Z,93.20
2022-09-27T06:21:17.423Z,93.10
2022-09-27T06:22:01.230Z,93.20
2022-09-27T06:22:43.107Z,92.90
2022-09-27T06:23:54.114Z,92.20
2022-09-27T06:24:35.721Z,92.30
2022-09-27T06:25:14.947Z,92.00
2022-09-27T06:26:25.082Z,91.10
2022-09-27T06:27:26.953Z,90.10
2022-09-27T06:28:12.699Z,88.20
2022-09-27T06:28:48.219Z,87.30
2022-09-27T06:29:21.507Z,86.40
2022-09-27T06:30:03.824Z,86.00
2022-09-27T06:30:55.216Z,85.30
2022-09-27T06:31:33.822Z,84.40
2022-09-27T06:32:26.752Z,84.10
2022-09-27T06:33:20.304Z,83.70
2022-09-27T06:33:59.593Z,82.60
2022-09-27T06:34:35.655Z,82.80
2022-09-27T06:35:10.683Z,82.90
2022-09-27T06:35:46.026Z,82.70
2022-09-27T06:36:19.752Z,82.70
2022-09-27T06:36:54.460Z,82.70
2022-09-27T06:37:29.483Z,82.80
2022-09-27T06:38:06.650Z,82.90
2022-09-27T06:38:39.188Z,82.70
2022-09-27T06:39:23.034Z,82.40
2022-09-27T06:40:27.791Z,82.50
2022-09-27T06:41:25.188Z,82.50
2022-09-27T06:42:12.637Z,80.60
2022-09-27T06:43:11.750Z,80.00
2022-09-27T06:44:01.950Z,79.30
2022-09-27T06:44:55.070Z,80.30
2022-09-27T06:45:48.298Z,80.10
2022-09-27T06:46:38.956Z,80.90
2022-09-27T06:47:30.669Z,81.50
2022-09-27T06:48:40.103Z,82.20
2022-09-27T06:49:26.076Z,82.70
2022-09-27T06:50:01.466Z,83.00
2022-09-27T06:50:35.249Z,83.30
2022-09-27T06:51:09.164Z,83.60
2022-09-27T06:51:43.842Z,83.50
2022-09-27T06:52:18.117Z,82.60
2022-09-27T06:52:53.420Z,82.60
2022-09-27T06:53:27.388Z,82.60
2022-09-27T06:54:03.530Z,82.60
2022-09-27T06:54:37.162Z,82.60
2022-09-27T06:55:11.048Z,82.60
2022-09-27T06:55:46.102Z,82.10
2022-09-27T06:56:18.963Z,82.10
2022-09-27T06:57:02.552Z,82.00
2022-09-27T06:57:54.762Z,82.70
2022-09-27T06:58:45.782Z,81.90
2022-09-27T06:59:56.464Z,81.30
2022-09-27T07:00:49.816Z,81.00
2022-09-27T07:01:33.407Z,81.60
2022-09-27T07:02:30.453Z,82.40
2022-09-27T07:03:42.222Z,82.00
2022-09-27T07:04:24.649Z,83.00
2022-09-27T07:05:10.909Z,82.60
2022-09-27T07:06:00.320Z,82.80
2022-09-27T07:06:58.161Z,83.20
2022-09-27T07:07:35.915Z,83.70
2022-09-27T07:08:12.937Z,84.30
2022-09-27T07:08:45.502Z,85.00
2022-09-27T07:09:19.737Z,85.20
2022-09-27T07:09:52.259Z,85.20
2022-09-27T07:10:28.058Z,85.20
2022-09-27T07:11:04.690Z,85.00
2022-09-27T07:11:37.505Z,85.00
2022-09-27T07:12:14.222Z,84.00
2022-09-27T07:12:49.039Z,83.30
2022-09-27T07:13:23.653Z,81.60
2022-09-27T07:13:58.664Z,80.20
2022-09-27T07:14:34.928Z,79.30
2022-09-27T07:15:10.967Z,78.20
2022-09-27T07:15:46.000Z,78.30
2022-09-27T07:16:21.623Z,78.40
2022-09-27T07:16:55.530Z,78.10
2022-09-27T07:17:30.358Z,78.00
2022-09-27T07:18:05.132Z,77.90
2022-09-27T07:18:37.823Z,77.80
2022-09-27T07:19:15.156Z,78.20
2022-09-27T07:19:51.266Z,77.20
2022-09-27T07:20:25.080Z,76.90
2022-09-27T07:21:01.493Z,77.10
2022-09-27T07:21:35.127Z,77.00
2022-09-27T07:22:08.899Z,75.90
2022-09-27T07:22:42.590Z,75.60
2022-09-27T07:23:17.587Z,75.50
2022-09-27T07:24:25.080Z,74.90
2022-09-27T07:24:58.377Z,75.40
2022-09-27T07:25:33.778Z,75.40
2022-09-27T07:26:08.090Z,75.50
2022-09-27T07:26:43.809Z,75.00
2022-09-27T07:27:18.474Z,74.60
2022-09-27T07:27:53.244Z,74.20
2022-09-27T07:28:28.507Z,74.00
2022-09-27T07:29:02.795Z,73.90
2022-09-27T07:29:38.136Z,73.50
2022-09-27T07:30:12.657Z,73.70
2022-09-27T07:30:46.933Z,73.60
2022-09-27T07:31:21.969Z,73.70
2022-09-27T07:31:55.022Z,73.80
2022-09-27T07:32:27.997Z,73.70
2022-09-27T07:33:03.279Z,73.40
2022-09-27T07:33:39.940Z,73.70
2022-09-27T07:34:19.708Z,73.60
2022-09-27T07:34:52.324Z,73.30
2022-09-27T07:35:28.008Z,73.00
2022-09-27T07:36:03.047Z,72.80
2022-09-27T07:36:36.770Z,72.80
2022-09-27T07:49:13.936Z,68.60
2022-09-27T07:49:57.057Z,58.80
2022-09-27T07:52:56.345Z,60.00
2022-09-27T07:53:41.870Z,62.70
2022-09-27T08:01:27.071Z,63.30
2022-09-27T08:02:02.580Z,65.20
2022-09-27T08:03:44.602Z,64.90
2022-09-27T08:04:21.262Z,64.70
2022-09-27T08:04:54.905Z,64.80
2022-09-27T08:05:31.689Z,64.10
2022-09-27T08:06:06.450Z,64.30
2022-09-27T08:06:40.981Z,64.80
2022-09-27T08:07:14.656Z,65.10
2022-09-27T08:07:55.832Z,65.40
2022-09-27T08:08:29.349Z,65.60
2022-09-27T08:09:03.923Z,66.10
2022-09-27T08:09:37.685Z,66.20
2022-09-27T08:10:11.766Z,66.20
2022-09-27T08:10:46.849Z,66.20
2022-09-27T08:11:20.856Z,66.50
2022-09-27T08:11:59.057Z,66.70
2022-09-27T08:12:31.967Z,66.90
2022-09-27T08:13:06.423Z,67.10
2022-09-27T08:13:40.782Z,67.20
2022-09-27T08:14:15.157Z,67.30
2022-09-27T08:14:51.582Z,67.60
2022-09-27T08:15:24.838Z,67.30
2022-09-27T08:16:03.368Z,67.60
2022-09-27T08:16:49.627Z,67.60
2022-09-27T08:17:41.124Z,68.00
2022-09-27T08:18:22.062Z,68.20
2022-09-27T08:19:02.509Z,68.50
2022-09-27T08:20:11.997Z,68.60
2022-09-27T08:21:08.617Z,69.10
2022-09-27T08:21:58.718Z,68.70
2022-09-27T08:22:40.688Z,68.50
2022-09-27T08:23:28.704Z,69.10
2022-09-27T08:24:18.524Z,69.70
2022-09-27T08:25:31.515Z,69.10
2022-09-27T08:26:09.619Z,68.20
2022-09-27T08:27:57.753Z,67.00
2022-09-27T09:14:55.425Z,62.10
2022-09-27T09:15:54.877Z,63.50
2022-09-27T09:16:35.598Z,63.40
2022-09-27T09:17:16.658Z,64.10
2022-09-27T09:18:20.197Z,64.70
2022-09-27T09:20:17.651Z,64.30
2022-09-27T09:21:10.121Z,64.20
2022-09-27T09:21:49.368Z,64.80
2022-09-27T09:22:31.962Z,64.90
2022-09-27T09:23:15.009Z,65.10
2022-09-27T09:24:02.884Z,65.50
2022-09-27T09:24:47.601Z,65.70
2022-09-27T09:25:29.360Z,65.90
2022-09-27T09:26:07.538Z,66.00
2022-09-27T09:26:49.402Z,66.30
2022-09-27T09:27:28.990Z,65.90
2022-09-27T09:28:08.147Z,65.70
2022-09-27T09:28:51.912Z,65.50
2022-09-27T09:29:35.894Z,65.00
2022-09-27T09:30:20.245Z,65.50
2022-09-27T09:31:06.395Z,65.30
2022-09-27T09:31:44.702Z,65.00
2022-09-27T09:32:25.065Z,65.10
2022-09-27T09:33:11.026Z,65.30
2022-09-27T09:33:47.100Z,65.10
2022-09-27T09:34:24.977Z,65.00
2022-09-27T09:35:01.619Z,65.00
2022-09-27T09:35:38.126Z,64.90
2022-09-27T09:36:14.719Z,65.00
2022-09-27T09:36:52.367Z,64.90
2022-09-27T09:37:32.361Z,65.00
2022-09-27T09:38:08.759Z,64.90
2022-09-27T09:38:44.088Z,65.30
2022-09-27T09:39:20.925Z,65.00
2022-09-27T09:39:59.265Z,64.90
2022-09-27T09:40:37.210Z,65.20
2022-09-27T09:41:17.639Z,65.30
2022-09-27T09:41:57.774Z,64.70
2022-09-27T09:42:33.835Z,64.50
2022-09-27T09:43:11.874Z,64.40
2022-09-27T09:43:52.262Z,64.50
2022-09-27T09:44:27.129Z,64.70
2022-09-27T09:45:04.461Z,64.70